createdAt,value
2018-09-28T00:00:06.513Z,18.90
2018-09-28T00:01:10.242Z,17.13
2018-09-28T00:02:13.798Z,19.90
2018-09-28T00:03:17.584Z,18.13
2018-09-28T00:04:21.177Z,18.00
2018-09-28T00:05:24.877Z,19.63
2018-09-28T00:06:28.642Z,16.47
2018-09-28T00:07:32.441Z,14.50
2018-09-28T00:08:36.013Z,14.87
2018-09-28T00:09:39.580Z,17.67
2018-09-28T00:10:43.292Z,17.87
2018-09-28T00:11:46.886Z,17.57
2018-09-28T00:12:50.869Z,17.93
2018-09-28T00:13:54.673Z,16.87
2018-09-28T00:14:59.007Z,17.93
2018-09-28T00:16:02.545Z,17.20
2018-09-28T00:17:06.331Z,18.30
2018-09-28T00:18:09.960Z,19.07
2018-09-28T00:19:13.536Z,16.53
2018-09-28T00:20:17.128Z,18.27
2018-09-28T00:21:20.626Z,17.43
2018-09-28T00:22:24.488Z,20.47
2018-09-28T00:23:28.080Z,18.03
2018-09-28T00:24:31.674Z,18.10
2018-09-28T00:25:35.352Z,21.73
2018-09-28T00:26:38.927Z,23.27
2018-09-28T00:27:42.551Z,23.43
2018-09-28T00:28:46.152Z,18.37
2018-09-28T00:29:49.799Z,18.40
2018-09-28T00:30:53.439Z,20.43
2018-09-28T00:31:57.214Z,20.47
2018-09-28T00:33:00.851Z,18.87
2018-09-28T00:34:04.508Z,23.17
2018-09-28T00:35:08.127Z,24.30
2018-09-28T00:36:12.051Z,22.93
2018-09-28T00:37:15.672Z,23.33
2018-09-28T00:38:19.347Z,22.80
2018-09-28T00:39:23.255Z,21.67
2018-09-28T00:40:26.891Z,23.70
2018-09-28T00:41:37.076Z,22.80
2018-09-28T00:42:40.909Z,21.70
2018-09-28T00:43:45.325Z,20.73
2018-09-28T00:44:49.001Z,22.20
2018-09-28T00:45:52.661Z,21.67
2018-09-28T00:46:56.236Z,17.77
2018-09-28T00:48:00.048Z,18.57
2018-09-28T00:49:03.741Z,19.63
2018-09-28T00:50:07.421Z,21.90
2018-09-28T00:51:10.954Z,21.57
2018-09-28T00:52:14.524Z,16.43
2018-09-28T00:53:18.114Z,19.83
2018-09-28T00:54:22.251Z,23.33
2018-09-28T00:55:25.890Z,22.30
2018-09-28T00:56:29.626Z,19.73
2018-09-28T00:57:33.332Z,19.07
2018-09-28T00:58:36.959Z,18.90
2018-09-28T00:59:41.084Z,20.00
2018-09-28T01:00:44.653Z,24.40
2018-09-28T01:01:48.344Z,22.67
2018-09-28T01:02:52.044Z,22.60
2018-09-28T01:03:55.821Z,20.80
2018-09-28T01:05:00.239Z,25.93
2018-09-28T01:06:03.855Z,21.07
2018-09-28T01:07:07.653Z,24.43
2018-09-28T01:08:11.469Z,24.63
2018-09-28T01:09:16.064Z,23.87
2018-09-28T01:10:19.651Z,25.53
2018-09-28T01:11:23.315Z,26.07
2018-09-28T01:12:27.002Z,32.33
2018-09-28T01:13:31.122Z,23.43
2018-09-28T01:14:35.348Z,23.67
2018-09-28T01:15:39.444Z,24.90
2018-09-28T01:16:43.295Z,26.53
2018-09-28T01:17:47.047Z,27.07
2018-09-28T01:18:50.903Z,24.40
2018-09-28T01:19:54.737Z,27.43
2018-09-28T01:20:58.305Z,27.87
2018-09-28T01:22:01.975Z,28.70
2018-09-28T01:23:06.514Z,27.37
2018-09-28T01:24:10.237Z,24.47
2018-09-28T01:25:13.912Z,25.43
2018-09-28T01:26:17.443Z,28.37
2018-09-28T01:27:21.064Z,30.93
2018-09-28T01:28:25.305Z,30.43
2018-09-28T01:29:28.914Z,26.73
2018-09-28T01:30:33.263Z,24.13
2018-09-28T01:31:37.914Z,28.07
2018-09-28T01:32:41.958Z,26.27
2018-09-28T01:33:45.495Z,29.47
2018-09-28T01:34:49.108Z,28.73
2018-09-28T01:35:52.628Z,26.13
2018-09-28T01:36:56.210Z,30.33
2018-09-28T01:38:00.339Z,29.90
2018-09-28T01:39:04.895Z,31.67
2018-09-28T01:40:08.404Z,31.90
2018-09-28T01:41:12.386Z,31.47
2018-09-28T01:42:17.184Z,31.97
2018-09-28T01:43:20.804Z,31.67
2018-09-28T01:44:25.236Z,35.80
2018-09-28T01:45:28.903Z,32.17
2018-09-28T01:46:32.568Z,30.13
2018-09-28T01:47:36.164Z,30.67
2018-09-28T01:48:39.874Z,36.50
2018-09-28T01:49:43.399Z,36.73
2018-09-28T01:50:47.157Z,30.67
2018-09-28T01:51:50.745Z,33.63
2018-09-28T01:52:54.590Z,34.83
2018-09-28T01:53:58.604Z,39.53
2018-09-28T01:55:02.900Z,33.30
2018-09-28T01:56:06.658Z,32.07
2018-09-28T01:57:10.445Z,37.30
2018-09-28T01:58:15.622Z,30.80
2018-09-28T01:59:19.246Z,37.33
2018-09-28T02:00:22.994Z,36.77
2018-09-28T02:01:26.732Z,34.97
2018-09-28T02:02:30.377Z,38.50
2018-09-28T02:03:34.171Z,36.70
2018-09-28T02:04:38.246Z,32.53
2018-09-28T02:05:41.889Z,36.33
2018-09-28T02:06:45.828Z,37.53
2018-09-28T02:07:49.360Z,38.03
2018-09-28T02:08:53.003Z,33.67
2018-09-28T02:09:56.586Z,36.90
2018-09-28T02:11:00.126Z,38.50
2018-09-28T02:12:03.775Z,37.90
2018-09-28T02:13:07.412Z,37.13
2018-09-28T02:14:11.120Z,37.80
2018-09-28T02:15:14.849Z,36.63
2018-09-28T02:16:19.169Z,36.07
2018-09-28T02:17:22.990Z,35.67
2018-09-28T02:18:26.552Z,32.57
2018-09-28T02:19:30.367Z,34.60
2018-09-28T02:20:33.941Z,34.03
2018-09-28T02:21:38.132Z,32.33
2018-09-28T02:22:41.936Z,28.43
2018-09-28T02:23:45.518Z,35.63
2018-09-28T02:24:49.323Z,29.20
2018-09-28T02:25:52.880Z,30.60
2018-09-28T02:26:56.529Z,31.73
2018-09-28T02:28:00.210Z,26.83
2018-09-28T02:29:04.377Z,30.93
2018-09-28T02:30:08.870Z,28.37
2018-09-28T02:31:12.704Z,28.60
2018-09-28T02:32:16.224Z,27.93
2018-09-28T02:33:19.895Z,28.87
2018-09-28T02:34:23.396Z,26.80
2018-09-28T02:35:26.979Z,25.73
2018-09-28T02:36:31.310Z,27.53
2018-09-28T02:37:34.846Z,24.90
2018-09-28T02:38:38.716Z,27.70
2018-09-28T02:39:42.260Z,26.50
2018-09-28T02:40:46.211Z,24.93
2018-09-28T02:41:49.951Z,28.03
2018-09-28T02:42:53.770Z,27.93
2018-09-28T02:43:57.629Z,26.60
2018-09-28T02:45:01.310Z,23.80
2018-09-28T02:46:05.100Z,25.23
2018-09-28T02:47:08.673Z,23.93
2018-09-28T02:48:12.595Z,23.17
2018-09-28T02:49:16.769Z,25.87
2018-09-28T02:50:20.461Z,29.00
2018-09-28T02:51:24.092Z,24.63
2018-09-28T02:52:28.370Z,25.43
2018-09-28T02:53:31.898Z,23.73
2018-09-28T02:54:35.547Z,23.20
2018-09-28T02:55:39.215Z,25.97
2018-09-28T02:56:42.789Z,22.27
2018-09-28T02:57:46.306Z,24.33
2018-09-28T02:58:50.411Z,24.23
2018-09-28T02:59:54.060Z,27.17
2018-09-28T03:00:57.631Z,28.13
2018-09-28T03:02:01.711Z,28.73
2018-09-28T03:03:05.254Z,27.83
2018-09-28T03:04:08.824Z,27.83
2018-09-28T03:05:12.454Z,27.37
2018-09-28T03:06:16.438Z,27.10
2018-09-28T03:07:20.224Z,27.90
2018-09-28T03:08:23.901Z,29.23
2018-09-28T03:09:27.489Z,29.67
2018-09-28T03:10:31.207Z,27.93
2018-09-28T03:11:35.007Z,27.60
2018-09-28T03:12:38.632Z,27.63
2018-09-28T03:13:42.160Z,30.47
2018-09-28T03:14:45.857Z,30.53
2018-09-28T03:15:50.325Z,29.70
2018-09-28T03:16:53.857Z,32.07
2018-09-28T03:17:57.384Z,31.57
2018-09-28T03:19:01.029Z,29.87
2018-09-28T03:20:04.693Z,28.80
2018-09-28T03:21:08.241Z,31.13
2018-09-28T03:22:12.042Z,32.87
2018-09-28T03:23:15.686Z,29.40
2018-09-28T03:24:19.352Z,30.07
2018-09-28T03:25:22.981Z,38.20
2018-09-28T03:26:26.801Z,29.53
2018-09-28T03:27:30.571Z,33.90
2018-09-28T03:28:34.173Z,29.67
2018-09-28T03:29:37.776Z,30.10
2018-09-28T03:30:41.460Z,24.93
2018-09-28T03:31:45.112Z,33.83
2018-09-28T03:32:48.623Z,29.80
2018-09-28T03:33:52.541Z,29.57
2018-09-28T03:34:56.248Z,28.47
2018-09-28T03:36:00.500Z,30.20
2018-09-28T03:37:04.247Z,32.57
2018-09-28T03:38:08.275Z,30.57
2018-09-28T03:39:12.056Z,30.23
2018-09-28T03:40:15.620Z,30.80
2018-09-28T03:41:19.728Z,32.17
2018-09-28T03:42:23.466Z,31.07
2018-09-28T03:43:27.143Z,30.33
2018-09-28T03:44:30.807Z,30.90
2018-09-28T03:45:34.369Z,32.80
2018-09-28T03:46:38.070Z,31.63
2018-09-28T03:47:44.372Z,34.87
2018-09-28T03:48:48.176Z,28.30
2018-09-28T03:49:51.818Z,33.57
2018-09-28T03:50:55.477Z,32.97
2018-09-28T03:51:59.290Z,30.90
2018-09-28T03:53:03.014Z,31.70
2018-09-28T03:54:06.647Z,31.40
2018-09-28T03:55:10.268Z,32.23
2018-09-28T03:56:13.846Z,30.30
2018-09-28T03:57:17.504Z,32.70
2018-09-28T03:58:21.197Z,33.07
2018-09-28T03:59:24.751Z,35.70
2018-09-28T04:00:28.300Z,33.07
2018-09-28T04:01:32.046Z,34.37
2018-09-28T04:02:35.781Z,32.83
2018-09-28T04:03:39.508Z,30.07
2018-09-28T04:04:43.381Z,28.93
2018-09-28T04:05:47.387Z,32.00
2018-09-28T04:06:51.237Z,35.30
2018-09-28T04:07:54.921Z,35.07
2018-09-28T04:08:58.619Z,33.30
2018-09-28T04:10:02.226Z,37.47
2018-09-28T04:11:06.069Z,32.93
2018-09-28T04:12:10.029Z,31.80
2018-09-28T04:13:14.627Z,30.97
2018-09-28T04:14:18.408Z,32.47
2018-09-28T04:15:22.148Z,32.67
2018-09-28T04:16:25.962Z,32.63
2018-09-28T04:17:29.771Z,30.53
2018-09-28T04:18:33.445Z,33.67
2018-09-28T04:19:37.039Z,28.07
2018-09-28T04:20:41.034Z,33.10
2018-09-28T04:21:51.973Z,32.17
2018-09-28T04:22:55.636Z,32.97
2018-09-28T04:23:59.791Z,30.40
2018-09-28T04:25:03.726Z,32.13
2018-09-28T04:26:07.524Z,29.17
2018-09-28T04:27:11.424Z,30.73
2018-09-28T04:28:15.391Z,31.90
2018-09-28T04:29:19.310Z,32.87
2018-09-28T04:30:23.820Z,33.87
2018-09-28T04:31:27.750Z,32.10
2018-09-28T04:32:31.859Z,34.73
2018-09-28T04:33:35.909Z,31.50
2018-09-28T04:34:40.066Z,32.80
2018-09-28T04:35:43.782Z,32.03
2018-09-28T04:36:47.978Z,30.07
2018-09-28T04:37:52.203Z,34.30
2018-09-28T04:38:55.989Z,31.30
2018-09-28T04:39:59.862Z,33.07
2018-09-28T04:41:03.630Z,33.77
2018-09-28T04:42:07.429Z,34.20
2018-09-28T04:43:12.141Z,34.47
2018-09-28T04:44:15.837Z,36.73
2018-09-28T04:45:20.297Z,32.97
2018-09-28T04:46:23.865Z,31.17
2018-09-28T04:47:27.786Z,33.43
2018-09-28T04:48:32.045Z,34.60
2018-09-28T04:49:35.970Z,31.10
2018-09-28T04:50:39.993Z,33.17
2018-09-28T04:51:44.419Z,32.90
2018-09-28T04:52:48.247Z,34.43
2018-09-28T04:53:52.407Z,32.87
2018-09-28T04:54:56.075Z,34.13
2018-09-28T04:56:00.244Z,32.27
2018-09-28T04:57:04.253Z,31.37
2018-09-28T04:58:07.999Z,33.63
2018-09-28T04:59:12.974Z,34.90
2018-09-28T05:00:17.063Z,35.07
2018-09-28T05:01:20.885Z,32.67
2018-09-28T05:02:24.715Z,34.50
2018-09-28T05:03:28.423Z,35.77
2018-09-28T05:04:32.093Z,31.30
2018-09-28T05:05:36.746Z,34.10
2018-09-28T05:06:40.822Z,36.80
2018-09-28T05:07:44.512Z,35.80
2018-09-28T05:08:48.366Z,32.90
2018-09-28T05:09:52.697Z,33.37
2018-09-28T05:10:56.736Z,36.60
2018-09-28T05:12:00.618Z,32.43
2018-09-28T05:13:04.880Z,33.60
2018-09-28T05:14:09.220Z,33.10
2018-09-28T05:15:13.877Z,32.53
2018-09-28T05:16:17.675Z,34.80
2018-09-28T05:17:21.446Z,35.20
2018-09-28T05:18:26.240Z,31.97
2018-09-28T05:19:30.329Z,34.90
2018-09-28T05:20:34.107Z,33.80
2018-09-28T05:21:37.982Z,31.63
2018-09-28T05:22:42.237Z,32.90
2018-09-28T05:23:46.118Z,33.33
2018-09-28T05:24:50.845Z,34.87
2018-09-28T05:25:54.753Z,32.53
2018-09-28T05:26:58.379Z,32.17
2018-09-28T05:28:02.625Z,33.53
2018-09-28T05:29:07.037Z,30.83
2018-09-28T05:30:11.088Z,36.37
2018-09-28T05:31:14.946Z,36.23
2018-09-28T05:32:18.664Z,32.50
2018-09-28T05:33:22.269Z,30.67
2018-09-28T05:34:26.526Z,37.73
2018-09-28T05:35:30.385Z,40.13
2018-09-28T05:36:34.164Z,72.37
2018-09-28T05:37:37.863Z,58.13
2018-09-28T05:38:42.894Z,64.07
2018-09-28T05:39:46.739Z,46.83
2018-09-28T05:40:50.634Z,50.87
2018-09-28T05:41:54.747Z,50.43
2018-09-28T05:42:58.511Z,44.43
2018-09-28T05:44:03.037Z,42.93
2018-09-28T05:45:07.059Z,40.12
2018-09-28T05:46:11.829Z,41.27
2018-09-28T05:47:15.529Z,35.03
2018-09-28T05:48:19.362Z,39.73
2018-09-28T05:49:23.367Z,36.05
2018-09-28T05:50:27.084Z,41.50
2018-09-28T05:51:31.237Z,54.13
2018-09-28T05:52:35.662Z,50.35
2018-09-28T05:53:40.027Z,69.07
2018-09-28T05:54:44.146Z,86.35
2018-09-28T05:55:47.907Z,50.13
2018-09-28T05:56:51.775Z,39.40
2018-09-28T05:58:00.839Z,34.10
2018-09-28T05:59:09.936Z,34.23
2018-09-28T06:00:18.970Z,39.98
2018-09-28T06:01:27.879Z,40.47
2018-09-28T06:02:36.794Z,38.57
2018-09-28T06:03:45.815Z,33.50
2018-09-28T06:04:55.056Z,32.77
2018-09-28T06:06:07.109Z,36.73
2018-09-28T06:07:11.476Z,35.67
2018-09-28T06:08:15.592Z,32.10
2018-09-28T06:09:19.581Z,31.20
2018-09-28T06:10:23.482Z,32.13
2018-09-28T06:11:27.328Z,30.83
2018-09-28T06:12:31.318Z,32.00
2018-09-28T06:13:35.185Z,30.13
2018-09-28T06:14:39.054Z,31.73
2018-09-28T06:15:43.001Z,29.23
2018-09-28T06:16:46.846Z,24.47
2018-09-28T06:17:52.241Z,28.20
2018-09-28T06:18:56.161Z,24.43
2018-09-28T06:19:59.965Z,26.68
2018-09-28T06:21:03.775Z,23.60
2018-09-28T06:22:07.436Z,23.70
2018-09-28T06:23:11.902Z,31.23
2018-09-28T06:24:15.756Z,22.17
2018-09-28T06:25:19.304Z,26.75
2018-09-28T06:26:22.858Z,23.93
2018-09-28T06:27:26.691Z,21.23
2018-09-28T06:28:32.492Z,15.57
2018-09-28T06:29:36.250Z,19.10
2018-09-28T06:30:40.436Z,15.13
2018-09-28T06:31:47.533Z,22.57
2018-09-28T06:32:51.442Z,21.23
2018-09-28T06:33:55.623Z,16.33
2018-09-28T06:35:01.504Z,19.70
2018-09-28T06:36:06.434Z,19.87
2018-09-28T06:37:11.751Z,20.30
2018-09-28T06:38:15.844Z,18.03
2018-09-28T06:39:21.630Z,16.63
2018-09-28T06:40:25.781Z,15.07
2018-09-28T06:41:29.522Z,17.97
2018-09-28T06:42:34.356Z,15.05
2018-09-28T06:43:38.504Z,16.17
2018-09-28T06:44:42.493Z,12.90
2018-09-28T06:45:48.030Z,13.90
2018-09-28T06:46:52.129Z,14.15
2018-09-28T06:47:56.407Z,9.60
2018-09-28T06:49:00.251Z,11.53
2018-09-28T06:50:04.123Z,12.53
2018-09-28T06:51:07.729Z,16.33
2018-09-28T06:52:13.854Z,9.00
2018-09-28T06:53:19.024Z,9.43
2018-09-28T06:54:22.700Z,10.87
2018-09-28T06:55:26.404Z,8.50
2018-09-28T06:56:31.107Z,8.47
2018-09-28T06:57:39.400Z,11.13
2018-09-28T06:58:44.374Z,7.77
2018-09-28T06:59:49.255Z,9.37
2018-09-28T07:01:02.836Z,11.80
2018-09-28T07:02:07.165Z,9.57
2018-09-28T07:03:14.242Z,10.20
2018-09-28T07:04:21.882Z,8.28
2018-09-28T07:05:40.508Z,9.60
2018-09-28T07:07:01.037Z,13.87
2018-09-28T07:08:11.675Z,9.27
2018-09-28T07:09:17.290Z,9.70
2018-09-28T07:10:23.566Z,10.87
2018-09-28T07:11:30.277Z,9.87
2018-09-28T07:12:34.428Z,7.77
2018-09-28T07:13:38.742Z,7.23
2018-09-28T07:14:42.599Z,9.87
2018-09-28T07:15:52.841Z,8.77
2018-09-28T07:17:13.355Z,7.70
2018-09-28T07:18:36.176Z,9.27
2018-09-28T07:19:41.111Z,9.00
2018-09-28T07:21:07.940Z,20.63
2018-09-28T07:22:31.449Z,10.13
2018-09-28T07:23:39.520Z,7.77
2018-09-28T07:24:46.029Z,10.00
2018-09-28T07:25:50.338Z,10.27
2018-09-28T07:26:59.473Z,6.90
2018-09-28T07:28:08.519Z,9.43
2018-09-28T07:29:15.157Z,9.17
2018-09-28T07:30:19.953Z,5.27
2018-09-28T07:31:24.545Z,10.37
2018-09-28T07:32:33.499Z,7.58
2018-09-28T07:34:02.946Z,14.30
2018-09-28T07:35:27.163Z,11.60
2018-09-28T07:36:35.091Z,8.00
2018-09-28T07:37:44.392Z,7.75
2018-09-28T07:40:28.347Z,8.03
2018-09-28T07:41:34.725Z,7.78
2018-09-28T07:47:44.443Z,6.70
2018-09-28T07:48:48.561Z,5.53
2018-09-28T07:49:52.147Z,7.37
2018-09-28T07:50:55.944Z,10.23
2018-09-28T07:52:00.345Z,12.00
2018-09-28T07:53:03.954Z,10.93
2018-09-28T07:54:07.719Z,8.03
2018-09-28T07:55:12.372Z,8.73
2018-09-28T07:56:16.867Z,7.37
2018-09-28T07:57:20.733Z,6.03
2018-09-28T07:58:24.394Z,14.28
2018-09-28T07:59:27.983Z,10.48
2018-09-28T08:00:32.666Z,6.50
2018-09-28T08:01:36.301Z,8.03
2018-09-28T08:02:40.004Z,5.13
2018-09-28T08:03:43.845Z,11.70
2018-09-28T08:04:48.055Z,11.20
2018-09-28T08:05:51.951Z,7.70
2018-09-28T08:06:55.696Z,9.05
2018-09-28T08:07:59.451Z,7.62
2018-09-28T08:09:03.220Z,8.15
2018-09-28T08:10:07.368Z,8.78
2018-09-28T08:11:13.615Z,9.23
2018-09-28T08:12:18.120Z,9.70
2018-09-28T08:13:24.481Z,8.73
2018-09-28T08:14:28.823Z,8.90
2018-09-28T08:15:32.581Z,7.97
2018-09-28T08:16:37.244Z,9.80
2018-09-28T08:17:40.770Z,7.90
2018-09-28T08:18:44.409Z,6.40
2018-09-28T08:19:48.176Z,11.70
2018-09-28T08:20:53.942Z,11.57
2018-09-28T08:21:57.655Z,12.77
2018-09-28T08:23:02.028Z,8.15
2018-09-28T08:24:06.031Z,12.53
2018-09-28T08:25:10.529Z,9.57
2018-09-28T08:26:14.313Z,8.13
2018-09-28T08:27:18.150Z,16.93
2018-09-28T08:28:21.874Z,8.93
2018-09-28T08:29:26.145Z,10.30
2018-09-28T08:30:30.594Z,8.10
2018-09-28T08:31:34.709Z,6.57
2018-09-28T08:32:38.478Z,12.65
2018-09-28T08:33:43.669Z,7.60
2018-09-28T08:34:48.465Z,16.07
2018-09-28T08:35:52.094Z,7.47
2018-09-28T08:36:55.702Z,10.80
2018-09-28T08:37:59.768Z,11.63
2018-09-28T08:39:05.165Z,8.10
2018-09-28T08:40:08.820Z,9.37
2018-09-28T08:41:13.823Z,7.00
2018-09-28T08:42:17.548Z,11.33
2018-09-28T08:43:21.957Z,6.37
2018-09-28T08:44:25.743Z,9.48
2018-09-28T08:45:29.545Z,9.30
2018-09-28T08:46:33.203Z,5.83
2018-09-28T08:47:36.864Z,13.10
2018-09-28T08:48:40.543Z,8.38
2018-09-28T08:49:45.412Z,12.73
2018-09-28T08:50:49.165Z,8.63
2018-09-28T08:51:53.494Z,9.20
2018-09-28T08:52:57.498Z,10.93
2018-09-28T08:54:01.222Z,8.23
2018-09-28T08:55:04.893Z,8.63
2018-09-28T08:56:08.848Z,10.05
2018-09-28T08:57:12.532Z,9.50
2018-09-28T08:58:19.203Z,12.93
2018-09-28T08:59:22.791Z,9.63
2018-09-28T09:00:27.001Z,12.70
2018-09-28T09:01:32.275Z,12.77
2018-09-28T09:02:36.153Z,11.03
2018-09-28T09:03:39.859Z,11.40
2018-09-28T09:04:43.455Z,6.63
2018-09-28T09:05:47.062Z,12.93
2018-09-28T09:06:50.652Z,11.08
2018-09-28T09:07:54.274Z,11.63
2018-09-28T09:08:57.899Z,10.53
2018-09-28T09:10:01.921Z,8.93
2018-09-28T09:11:06.132Z,10.65
2018-09-28T09:12:10.566Z,8.78
2018-09-28T09:13:15.085Z,7.87
2018-09-28T09:14:18.799Z,13.48
2018-09-28T09:15:22.486Z,7.65
2018-09-28T09:16:26.204Z,10.00
2018-09-28T09:17:30.085Z,11.28
2018-09-28T09:18:33.735Z,9.68
2018-09-28T09:19:37.398Z,14.90
2018-09-28T09:20:41.046Z,6.65
2018-09-28T09:21:45.447Z,9.93
2018-09-28T09:22:49.283Z,6.75
2018-09-28T09:23:52.952Z,8.60
2018-09-28T09:24:56.586Z,6.25
2018-09-28T09:26:00.246Z,11.35
2018-09-28T09:27:05.101Z,7.90
2018-09-28T09:28:08.911Z,13.48
2018-09-28T09:29:13.052Z,14.60
2018-09-28T09:30:18.031Z,10.60
2018-09-28T09:31:22.449Z,11.38
2018-09-28T09:32:26.347Z,16.25
2018-09-28T09:33:30.726Z,9.05
2018-09-28T09:34:35.513Z,10.03
2018-09-28T09:37:46.124Z,12.18
2018-09-28T09:39:24.289Z,9.45
2018-09-28T09:41:02.197Z,7.92
2018-09-28T09:42:40.300Z,13.68
2018-09-28T09:44:09.840Z,5.30
2018-09-28T09:45:13.888Z,10.45
2018-09-28T09:46:17.617Z,11.75
2018-09-28T09:47:21.383Z,8.55
2018-09-28T09:48:25.741Z,10.58
2018-09-28T09:49:30.912Z,9.60
2018-09-28T09:50:34.588Z,13.62
2018-09-28T09:51:38.829Z,8.20
2018-09-28T09:52:42.639Z,8.75
2018-09-28T09:53:46.280Z,9.60
2018-09-28T09:54:50.662Z,8.08
2018-09-28T09:55:54.222Z,10.90
2018-09-28T09:56:57.868Z,15.13
2018-09-28T09:58:01.616Z,8.88
2018-09-28T09:59:05.411Z,12.85
2018-09-28T10:00:09.264Z,8.15
2018-09-28T10:01:19.465Z,11.97
2018-09-28T10:02:28.296Z,11.28
2018-09-28T10:03:37.191Z,8.60
2018-09-28T10:04:41.227Z,6.10
2018-09-28T10:05:44.839Z,10.05
2018-09-28T10:06:48.708Z,15.08
2018-09-28T10:07:52.342Z,9.63
2018-09-28T10:08:55.991Z,11.20
2018-09-28T10:09:59.583Z,12.60
2018-09-28T10:11:03.343Z,6.40
2018-09-28T10:12:06.936Z,9.98
2018-09-28T10:13:13.469Z,9.23
2018-09-28T10:14:17.027Z,8.25
2018-09-28T10:15:21.094Z,8.53
2018-09-28T10:16:24.751Z,8.40
2018-09-28T10:17:28.405Z,7.37
2018-09-28T10:18:32.768Z,8.88
2018-09-28T10:19:36.335Z,11.63
2018-09-28T10:20:39.931Z,11.00
2018-09-28T10:21:43.476Z,11.65
2018-09-28T10:22:47.026Z,7.87
2018-09-28T10:23:50.655Z,7.08
2018-09-28T10:24:54.159Z,6.10
2018-09-28T10:25:58.406Z,11.78
2018-09-28T10:27:01.978Z,7.17
2018-09-28T10:28:05.623Z,15.93
2018-09-28T10:29:09.581Z,15.40
2018-09-28T10:30:13.406Z,9.35
2018-09-28T10:31:17.126Z,11.57
2018-09-28T10:32:20.642Z,9.20
2018-09-28T10:33:24.613Z,9.95
2018-09-28T10:34:28.389Z,7.90
2018-09-28T10:35:31.979Z,7.75
2018-09-28T10:36:35.593Z,7.55
2018-09-28T10:37:39.994Z,10.88
2018-09-28T10:38:44.500Z,12.03
2018-09-28T10:39:48.224Z,8.58
2018-09-28T10:40:52.020Z,7.55
2018-09-28T10:41:55.578Z,7.30
2018-09-28T10:42:59.349Z,9.83
2018-09-28T10:44:03.101Z,7.92
2018-09-28T10:45:06.866Z,17.23
2018-09-28T10:46:10.559Z,6.50
2018-09-28T10:47:14.435Z,10.72
2018-09-28T10:48:18.130Z,7.45
2018-09-28T10:49:21.926Z,10.13
2018-09-28T10:50:26.698Z,14.25
2018-09-28T10:51:30.542Z,9.10
2018-09-28T10:52:34.139Z,6.17
2018-09-28T10:53:37.790Z,8.95
2018-09-28T10:54:41.444Z,5.00
2018-09-28T10:55:45.119Z,5.67
2018-09-28T10:56:48.730Z,8.70
2018-09-28T10:57:52.247Z,8.35
2018-09-28T10:58:56.002Z,8.03
2018-09-28T10:59:59.461Z,8.40
2018-09-28T11:01:03.007Z,8.93
2018-09-28T11:02:06.708Z,11.88
2018-09-28T11:03:11.653Z,9.65
2018-09-28T11:04:23.750Z,5.20
2018-09-28T11:05:27.303Z,7.58
2018-09-28T11:06:30.955Z,9.00
2018-09-28T11:07:34.486Z,7.62
2018-09-28T11:08:38.195Z,5.10
2018-09-28T11:09:41.776Z,10.35
2018-09-28T11:10:45.344Z,11.18
2018-09-28T11:11:48.916Z,5.53
2018-09-28T11:12:52.835Z,8.98
2018-09-28T11:13:56.401Z,9.35
2018-09-28T11:15:00.200Z,5.85
2018-09-28T11:16:03.785Z,6.72
2018-09-28T11:17:07.327Z,8.28
2018-09-28T11:18:11.060Z,8.58
2018-09-28T11:19:14.708Z,6.78
2018-09-28T11:20:18.681Z,8.48
2018-09-28T11:21:22.236Z,10.35
2018-09-28T11:22:25.858Z,6.75
2018-09-28T11:23:29.622Z,9.18
2018-09-28T11:24:33.227Z,3.87
2018-09-28T11:25:36.784Z,6.00
2018-09-28T11:26:40.356Z,8.65
2018-09-28T11:27:44.040Z,4.60
2018-09-28T11:28:47.502Z,6.75
2018-09-28T11:29:51.354Z,8.28
2018-09-28T11:30:54.917Z,7.97
2018-09-28T11:31:58.546Z,5.20
2018-09-28T11:33:02.342Z,8.03
2018-09-28T11:34:06.167Z,8.90
2018-09-28T11:35:09.914Z,7.87
2018-09-28T11:36:13.632Z,11.10
2018-09-28T11:37:17.107Z,9.53
2018-09-28T11:38:20.947Z,5.30
2018-09-28T11:39:24.558Z,5.72
2018-09-28T11:40:28.165Z,6.00
2018-09-28T11:41:31.748Z,9.83
2018-09-28T11:42:35.318Z,10.40
2018-09-28T11:43:38.904Z,9.18
2018-09-28T11:44:42.521Z,8.05
2018-09-28T11:45:46.214Z,10.18
2018-09-28T11:46:49.802Z,8.90
2018-09-28T11:47:53.413Z,9.18
2018-09-28T11:48:57.010Z,8.68
2018-09-28T11:50:00.647Z,6.20
2018-09-28T11:51:04.386Z,7.22
2018-09-28T11:52:07.951Z,6.72
2018-09-28T11:53:11.557Z,5.67
2018-09-28T11:54:15.208Z,10.38
2018-09-28T11:55:18.731Z,8.20
2018-09-28T11:56:22.306Z,10.25
2018-09-28T11:57:25.844Z,6.17
2018-09-28T11:58:29.477Z,9.88
2018-09-28T11:59:33.067Z,6.17
2018-09-28T12:00:36.684Z,8.30
2018-09-28T12:01:40.214Z,7.58
2018-09-28T12:02:43.910Z,9.43
2018-09-28T12:03:47.566Z,7.20
2018-09-28T12:04:51.096Z,9.13
2018-09-28T12:05:54.700Z,7.17
2018-09-28T12:06:58.401Z,5.40
2018-09-28T12:08:01.849Z,4.05
2018-09-28T12:09:08.776Z,4.65
2018-09-28T12:10:13.073Z,8.33
2018-09-28T12:11:16.760Z,8.45
2018-09-28T12:12:20.565Z,8.38
2018-09-28T12:13:24.141Z,3.92
2018-09-28T12:14:27.665Z,7.17
2018-09-28T12:15:31.746Z,7.53
2018-09-28T12:16:36.042Z,4.80
2018-09-28T12:17:39.658Z,6.62
2018-09-28T12:18:43.311Z,4.55
2018-09-28T12:19:47.119Z,4.95
2018-09-28T12:20:50.670Z,4.55
2018-09-28T12:21:54.323Z,7.62
2018-09-28T12:22:57.991Z,7.30
2018-09-28T12:24:01.669Z,7.12
2018-09-28T12:25:05.419Z,8.28
2018-09-28T12:26:09.032Z,4.30
2018-09-28T12:27:12.800Z,7.08
2018-09-28T12:28:16.971Z,6.58
2018-09-28T12:29:20.667Z,6.08
2018-09-28T12:30:24.359Z,7.05
2018-09-28T12:31:28.617Z,5.90
2018-09-28T12:32:32.255Z,9.13
2018-09-28T12:33:35.970Z,5.87
2018-09-28T12:34:39.600Z,8.83
2018-09-28T12:35:43.263Z,6.53
2018-09-28T12:36:47.253Z,7.53
2018-09-28T12:37:51.020Z,8.73
2018-09-28T12:38:55.669Z,5.85
2018-09-28T12:39:59.492Z,7.55
2018-09-28T12:41:03.059Z,2.90
2018-09-28T12:42:06.860Z,6.97
2018-09-28T12:43:10.415Z,5.30
2018-09-28T12:44:14.133Z,6.37
2018-09-28T12:45:18.500Z,6.72
2018-09-28T12:46:22.119Z,7.42
2018-09-28T12:47:25.705Z,3.62
2018-09-28T12:48:29.427Z,6.30
2018-09-28T12:49:33.876Z,8.38
2018-09-28T12:50:37.762Z,4.92
2018-09-28T12:51:41.471Z,6.33
2018-09-28T12:52:45.194Z,5.47
2018-09-28T12:53:50.700Z,9.00
2018-09-28T12:54:54.317Z,5.78
2018-09-28T12:55:58.039Z,5.92
2018-09-28T12:57:01.598Z,5.47
2018-09-28T12:59:15.393Z,5.62
2018-09-28T13:00:19.123Z,3.87
2018-09-28T13:01:23.237Z,7.80
2018-09-28T13:02:26.825Z,6.00
2018-09-28T13:03:30.525Z,5.78
2018-09-28T13:04:34.184Z,5.92
2018-09-28T13:05:37.696Z,4.85
2018-09-28T13:06:41.256Z,7.60
2018-09-28T13:07:45.529Z,7.12
2018-09-28T13:08:49.312Z,3.10
2018-09-28T13:09:52.770Z,5.08
2018-09-28T13:10:56.453Z,7.35
2018-09-28T13:12:00.663Z,7.20
2018-09-28T13:13:04.379Z,4.15
2018-09-28T13:14:08.107Z,6.17
2018-09-28T13:15:11.862Z,4.95
2018-09-28T13:16:16.020Z,6.17
2018-09-28T13:17:19.840Z,6.12
2018-09-28T13:18:24.725Z,6.25
2018-09-28T13:19:28.316Z,5.75
2018-09-28T13:20:32.248Z,8.18
2018-09-28T13:21:36.166Z,6.95
2018-09-28T13:22:40.486Z,5.50
2018-09-28T13:23:44.093Z,12.23
2018-09-28T13:24:47.813Z,8.23
2018-09-28T13:25:51.489Z,6.25
2018-09-28T13:26:55.411Z,8.35
2018-09-28T13:27:59.148Z,7.60
2018-09-28T13:29:02.734Z,5.78
2018-09-28T13:30:06.388Z,7.90
2018-09-28T13:31:10.092Z,7.97
2018-09-28T13:32:14.648Z,8.10
2018-09-28T13:33:18.522Z,4.97
2018-09-28T13:34:22.339Z,7.83
2018-09-28T13:35:26.595Z,5.40
2018-09-28T13:36:30.985Z,4.53
2018-09-28T13:37:35.692Z,4.33
2018-09-28T13:38:39.608Z,6.58
2018-09-28T13:39:43.056Z,7.35
2018-09-28T13:40:46.612Z,6.42
2018-09-28T13:41:50.825Z,6.47
2018-09-28T13:42:54.340Z,6.12
2018-09-28T13:43:58.145Z,6.33
2018-09-28T13:45:02.705Z,4.10
2018-09-28T13:46:06.968Z,4.33
2018-09-28T13:47:11.143Z,6.75
2018-09-28T13:48:14.745Z,5.72
2018-09-28T13:49:19.014Z,10.78
2018-09-28T13:50:23.735Z,5.12
2018-09-28T13:51:27.227Z,5.05
2018-09-28T13:52:31.350Z,2.58
2018-09-28T13:53:34.855Z,4.90
2018-09-28T13:54:39.135Z,3.75
2018-09-28T13:55:42.790Z,6.08
2018-09-28T13:56:46.877Z,4.65
2018-09-28T13:57:50.581Z,7.50
2018-09-28T13:58:54.351Z,5.35
2018-09-28T13:59:57.943Z,4.65
2018-09-28T14:01:01.531Z,7.95
2018-09-28T14:02:05.419Z,4.17
2018-09-28T14:03:09.117Z,5.33
2018-09-28T14:04:13.037Z,4.08
2018-09-28T14:05:16.647Z,6.78
2018-09-28T14:06:20.368Z,5.42
2018-09-28T14:07:23.938Z,5.35
2018-09-28T14:08:27.846Z,3.10
2018-09-28T14:09:31.500Z,3.05
2018-09-28T14:10:35.675Z,6.00